sensor_id;sensor_type;location;lat;lon;timestamp;P1;durP1;ratioP1;P2;durP2;ratioP2
59054;SDS011;44845;51.444;7.460;2023-02-11T00:00:05;32.17;;;18.63;;
59054;SDS011;44845;51.444;7.460;2023-02-11T00:02:32;33.85;;;18.67;;
59054;SDS011;44845;51.444;7.460;2023-02-11T00:04:57;34.75;;;18.30;;
59054;SDS011;44845;51.444;7.460;2023-02-11T00:07:25;33.65;;;19.08;;
59054;SDS011;44845;51.444;7.460;2023-02-11T00:09:53;33.95;;;17.42;;
59054;SDS011;44845;51.444;7.460;2023-02-11T00:12:18;37.55;;;18.80;;
59054;SDS011;44845;51.444;7.460;2023-02-11T00:14:43;32.17;;;18.05;;
59054;SDS011;44845;51.444;7.460;2023-02-11T00:17:09;30.15;;;16.77;;
59054;SDS011;44845;51.444;7.460;2023-02-11T00:19:34;32.95;;;18.90;;
59054;SDS011;44845;51.444;7.460;2023-02-11T00:21:59;32.83;;;19.15;;
59054;SDS011;44845;51.444;7.460;2023-02-11T00:24:25;32.72;;;17.92;;
59054;SDS011;44845;51.444;7.460;2023-02-11T00:26:50;31.40;;;17.33;;
59054;SDS011;44845;51.444;7.460;2023-02-11T00:29:16;31.88;;;17.75;;
59054;SDS011;44845;51.444;7.460;2023-02-11T00:31:41;34.78;;;17.83;;
59054;SDS011;44845;51.444;7.460;2023-02-11T00:34:06;29.05;;;17.70;;
59054;SDS011;44845;51.444;7.460;2023-02-11T00:36:32;32.03;;;17.65;;
59054;SDS011;44845;51.444;7.460;2023-02-11T00:38:57;31.90;;;18.88;;
59054;SDS011;44845;51.444;7.460;2023-02-11T00:41:23;33.45;;;18.27;;
59054;SDS011;44845;51.444;7.460;2023-02-11T00:43:50;35.72;;;18.27;;
59054;SDS011;44845;51.444;7.460;2023-02-11T00:46:16;31.95;;;18.20;;
59054;SDS011;44845;51.444;7.460;2023-02-11T00:48:41;31.65;;;16.88;;
59054;SDS011;44845;51.444;7.460;2023-02-11T00:51:07;32.67;;;18.42;;
59054;SDS011;44845;51.444;7.460;2023-02-11T00:53:33;31.70;;;18.15;;
59054;SDS011;44845;51.444;7.460;2023-02-11T00:55:59;31.38;;;17.15;;
59054;SDS011;44845;51.444;7.460;2023-02-11T00:58:25;35.40;;;17.65;;
59054;SDS011;44845;51.444;7.460;2023-02-11T01:00:51;30.75;;;18.02;;
59054;SDS011;44845;51.444;7.460;2023-02-11T01:03:17;29.58;;;16.75;;
59054;SDS011;44845;51.444;7.460;2023-02-11T01:05:43;30.05;;;17.58;;
59054;SDS011;44845;51.444;7.460;2023-02-11T01:08:08;37.50;;;17.52;;
59054;SDS011;44845;51.444;7.460;2023-02-11T01:10:33;29.20;;;17.23;;
59054;SDS011;44845;51.444;7.460;2023-02-11T01:12:59;28.67;;;16.63;;
59054;SDS011;44845;51.444;7.460;2023-02-11T01:15:25;29.45;;;16.88;;
59054;SDS011;44845;51.444;7.460;2023-02-11T01:17:50;30.08;;;16.98;;
59054;SDS011;44845;51.444;7.460;2023-02-11T01:20:20;31.73;;;16.80;;
59054;SDS011;44845;51.444;7.460;2023-02-11T01:22:49;30.63;;;17.55;;
59054;SDS011;44845;51.444;7.460;2023-02-11T01:25:14;28.90;;;15.68;;
59054;SDS011;44845;51.444;7.460;2023-02-11T01:27:40;30.42;;;16.60;;
59054;SDS011;44845;51.444;7.460;2023-02-11T01:30:06;28.45;;;16.63;;
59054;SDS011;44845;51.444;7.460;2023-02-11T01:32:34;29.17;;;16.92;;
59054;SDS011;44845;51.444;7.460;2023-02-11T01:35:00;29.13;;;16.48;;
59054;SDS011;44845;51.444;7.460;2023-02-11T01:37:25;27.25;;;16.17;;
59054;SDS011;44845;51.444;7.460;2023-02-11T01:39:51;27.98;;;16.92;;
59054;SDS011;44845;51.444;7.460;2023-02-11T01:42:17;29.50;;;16.73;;
59054;SDS011;44845;51.444;7.460;2023-02-11T01:44:44;26.75;;;16.20;;
59054;SDS011;44845;51.444;7.460;2023-02-11T01:47:13;35.13;;;16.58;;
59054;SDS011;44845;51.444;7.460;2023-02-11T01:49:39;32.25;;;17.45;;
59054;SDS011;44845;51.444;7.460;2023-02-11T01:52:09;27.48;;;15.23;;
59054;SDS011;44845;51.444;7.460;2023-02-11T01:54:56;34.80;;;16.63;;
59054;SDS011;44845;51.444;7.460;2023-02-11T01:57:44;27.35;;;15.70;;
59054;SDS011;44845;51.444;7.460;2023-02-11T02:10:47;29.98;;;15.98;;
59054;SDS011;44845;51.444;7.460;2023-02-11T02:13:17;28.40;;;16.40;;
59054;SDS011;44845;51.444;7.460;2023-02-11T02:15:46;27.30;;;15.82;;
59054;SDS011;44845;51.444;7.460;2023-02-11T02:30:06;29.53;;;17.03;;
59054;SDS011;44845;51.444;7.460;2023-02-11T02:32:42;30.65;;;17.40;;
59054;SDS011;44845;51.444;7.460;2023-02-11T02:38:07;26.50;;;17.00;;
59054;SDS011;44845;51.444;7.460;2023-02-11T02:40:44;31.85;;;17.48;;
59054;SDS011;44845;51.444;7.460;2023-02-11T02:43:27;29.65;;;17.77;;
59054;SDS011;44845;51.444;7.460;2023-02-11T02:45:54;31.10;;;19.17;;
59054;SDS011;44845;51.444;7.460;2023-02-11T02:54:12;30.60;;;17.98;;
59054;SDS011;44845;51.444;7.460;2023-02-11T03:02:30;34.53;;;17.80;;
59054;SDS011;44845;51.444;7.460;2023-02-11T03:05:15;32.25;;;17.45;;
59054;SDS011;44845;51.444;7.460;2023-02-11T03:07:51;30.92;;;16.85;;
59054;SDS011;44845;51.444;7.460;2023-02-11T03:10:27;30.52;;;17.30;;
59054;SDS011;44845;51.444;7.460;2023-02-11T03:12:55;27.80;;;16.73;;
59054;SDS011;44845;51.444;7.460;2023-02-11T03:15:21;30.02;;;17.25;;
59054;SDS011;44845;51.444;7.460;2023-02-11T03:17:50;28.13;;;17.70;;
59054;SDS011;44845;51.444;7.460;2023-02-11T03:20:19;35.45;;;16.88;;
59054;SDS011;44845;51.444;7.460;2023-02-11T03:22:47;31.75;;;17.30;;
59054;SDS011;44845;51.444;7.460;2023-02-11T03:25:14;25.73;;;17.05;;
59054;SDS011;44845;51.444;7.460;2023-02-11T03:30:15;29.25;;;17.65;;
59054;SDS011;44845;51.444;7.460;2023-02-11T03:35:38;27.13;;;17.40;;
59054;SDS011;44845;51.444;7.460;2023-02-11T03:38:12;38.13;;;18.00;;
59054;SDS011;44845;51.444;7.460;2023-02-11T03:40:45;27.40;;;16.00;;
59054;SDS011;44845;51.444;7.460;2023-02-11T03:43:19;28.10;;;15.85;;
59054;SDS011;44845;51.444;7.460;2023-02-11T03:45:48;33.13;;;16.35;;
59054;SDS011;44845;51.444;7.460;2023-02-11T03:48:24;34.47;;;17.00;;
59054;SDS011;44845;51.444;7.460;2023-02-11T03:50:53;32.88;;;16.85;;
59054;SDS011;44845;51.444;7.460;2023-02-11T03:53:22;27.55;;;16.05;;
59054;SDS011;44845;51.444;7.460;2023-02-11T03:55:48;29.10;;;16.88;;
59054;SDS011;44845;51.444;7.460;2023-02-11T03:58:15;30.60;;;17.33;;
59054;SDS011;44845;51.444;7.460;2023-02-11T04:00:41;29.92;;;16.38;;
59054;SDS011;44845;51.444;7.460;2023-02-11T04:03:09;31.73;;;16.27;;
59054;SDS011;44845;51.444;7.460;2023-02-11T04:05:36;32.60;;;17.10;;
59054;SDS011;44845;51.444;7.460;2023-02-11T04:08:02;36.35;;;18.13;;
59054;SDS011;44845;51.444;7.460;2023-02-11T04:10:28;36.65;;;17.88;;
59054;SDS011;44845;51.444;7.460;2023-02-11T04:12:53;33.97;;;17.25;;
59054;SDS011;44845;51.444;7.460;2023-02-11T04:15:19;33.60;;;17.98;;
59054;SDS011;44845;51.444;7.460;2023-02-11T04:17:44;36.20;;;18.55;;
59054;SDS011;44845;51.444;7.460;2023-02-11T04:20:10;30.15;;;17.50;;
59054;SDS011;44845;51.444;7.460;2023-02-11T04:22:35;37.08;;;18.50;;
59054;SDS011;44845;51.444;7.460;2023-02-11T04:25:02;34.95;;;17.08;;
59054;SDS011;44845;51.444;7.460;2023-02-11T04:27:28;31.55;;;16.90;;
59054;SDS011;44845;51.444;7.460;2023-02-11T04:29:54;36.28;;;18.38;;
59054;SDS011;44845;51.444;7.460;2023-02-11T04:32:19;33.67;;;18.02;;
59054;SDS011;44845;51.444;7.460;2023-02-11T04:34:44;34.38;;;17.25;;
59054;SDS011;44845;51.444;7.460;2023-02-11T04:37:10;28.35;;;17.95;;
59054;SDS011;44845;51.444;7.460;2023-02-11T04:39:35;32.22;;;18.75;;
59054;SDS011;44845;51.444;7.460;2023-02-11T04:42:01;33.60;;;18.95;;
59054;SDS011;44845;51.444;7.460;2023-02-11T04:44:26;32.05;;;17.70;;
59054;SDS011;44845;51.444;7.460;2023-02-11T04:46:52;29.20;;;18.15;;
59054;SDS011;44845;51.444;7.460;2023-02-11T04:49:17;35.53;;;19.27;;
59054;SDS011;44845;51.444;7.460;2023-02-11T04:51:43;28.92;;;18.50;;
59054;SDS011;44845;51.444;7.460;2023-02-11T04:54:11;36.80;;;19.13;;
59054;SDS011;44845;51.444;7.460;2023-02-11T04:56:37;29.95;;;17.90;;
59054;SDS011;44845;51.444;7.460;2023-02-11T04:59:03;37.00;;;19.77;;
59054;SDS011;44845;51.444;7.460;2023-02-11T05:01:29;34.53;;;18.52;;
59054;SDS011;44845;51.444;7.460;2023-02-11T05:03:54;34.15;;;19.42;;
59054;SDS011;44845;51.444;7.460;2023-02-11T05:06:20;32.63;;;18.95;;
59054;SDS011;44845;51.444;7.460;2023-02-11T05:08:46;27.85;;;18.52;;
59054;SDS011;44845;51.444;7.460;2023-02-11T05:11:14;30.65;;;18.90;;
59054;SDS011;44845;51.444;7.460;2023-02-11T05:13:41;31.85;;;18.17;;
59054;SDS011;44845;51.444;7.460;2023-02-11T05:16:07;38.92;;;20.00;;
59054;SDS011;44845;51.444;7.460;2023-02-11T05:18:33;30.65;;;18.40;;
59054;SDS011;44845;51.444;7.460;2023-02-11T05:21:04;32.55;;;18.65;;
59054;SDS011;44845;51.444;7.460;2023-02-11T05:23:30;35.92;;;18.40;;
59054;SDS011;44845;51.444;7.460;2023-02-11T05:25:56;34.33;;;19.38;;
59054;SDS011;44845;51.444;7.460;2023-02-11T05:28:21;37.25;;;19.20;;
59054;SDS011;44845;51.444;7.460;2023-02-11T05:30:46;29.27;;;18.17;;
59054;SDS011;44845;51.444;7.460;2023-02-11T05:33:12;33.38;;;19.40;;
59054;SDS011;44845;51.444;7.460;2023-02-11T05:35:37;32.42;;;18.60;;
59054;SDS011;44845;51.444;7.460;2023-02-11T05:38:03;34.63;;;19.75;;
59054;SDS011;44845;51.444;7.460;2023-02-11T05:40:28;33.35;;;19.13;;
59054;SDS011;44845;51.444;7.460;2023-02-11T05:42:53;34.63;;;19.65;;
59054;SDS011;44845;51.444;7.460;2023-02-11T05:45:19;36.22;;;17.80;;
59054;SDS011;44845;51.444;7.460;2023-02-11T05:47:44;30.83;;;18.27;;
59054;SDS011;44845;51.444;7.460;2023-02-11T05:50:09;30.42;;;17.63;;
59054;SDS011;44845;51.444;7.460;2023-02-11T05:52:35;36.30;;;20.25;;
59054;SDS011;44845;51.444;7.460;2023-02-11T05:55:00;34.10;;;18.85;;
59054;SDS011;44845;51.444;7.460;2023-02-11T05:57:25;32.08;;;18.33;;
59054;SDS011;44845;51.444;7.460;2023-02-11T05:59:51;33.63;;;17.67;;
59054;SDS011;44845;51.444;7.460;2023-02-11T06:02:16;31.10;;;19.77;;
59054;SDS011;44845;51.444;7.460;2023-02-11T06:04:43;34.45;;;19.55;;
59054;SDS011;44845;51.444;7.460;2023-02-11T06:07:09;34.67;;;18.58;;
59054;SDS011;44845;51.444;7.460;2023-02-11T06:09:37;32.60;;;19.10;;
59054;SDS011;44845;51.444;7.460;2023-02-11T06:12:02;37.08;;;19.73;;
59054;SDS011;44845;51.444;7.460;2023-02-11T06:14:28;33.13;;;19.92;;
59054;SDS011;44845;51.444;7.460;2023-02-11T06:16:53;32.40;;;20.02;;
59054;SDS011;44845;51.444;7.460;2023-02-11T06:19:19;35.13;;;19.67;;
59054;SDS011;44845;51.444;7.460;2023-02-11T06:21:44;32.05;;;19.98;;
59054;SDS011;44845;51.444;7.460;2023-02-11T06:24:10;36.38;;;19.55;;
59054;SDS011;44845;51.444;7.460;2023-02-11T06:26:36;31.83;;;19.33;;
59054;SDS011;44845;51.444;7.460;2023-02-11T06:29:01;34.10;;;18.80;;
59054;SDS011;44845;51.444;7.460;2023-02-11T06:31:26;36.00;;;20.45;;
59054;SDS011;44845;51.444;7.460;2023-02-11T06:33:52;36.38;;;19.35;;
59054;SDS011;44845;51.444;7.460;2023-02-11T06:36:19;36.95;;;20.33;;
59054;SDS011;44845;51.444;7.460;2023-02-11T06:38:46;34.70;;;20.67;;
59054;SDS011;44845;51.444;7.460;2023-02-11T06:41:12;33.60;;;19.45;;
59054;SDS011;44845;51.444;7.460;2023-02-11T06:43:40;41.13;;;21.27;;
59054;SDS011;44845;51.444;7.460;2023-02-11T06:46:05;33.33;;;20.65;;
59054;SDS011;44845;51.444;7.460;2023-02-11T06:48:32;34.47;;;19.83;;
59054;SDS011;44845;51.444;7.460;2023-02-11T06:51:01;35.55;;;20.15;;
59054;SDS011;44845;51.444;7.460;2023-02-11T06:53:31;37.92;;;20.80;;
59054;SDS011;44845;51.444;7.460;2023-02-11T06:56:03;35.53;;;20.88;;
59054;SDS011;44845;51.444;7.460;2023-02-11T06:58:29;36.80;;;20.52;;
59054;SDS011;44845;51.444;7.460;2023-02-11T07:00:55;38.78;;;21.25;;
59054;SDS011;44845;51.444;7.460;2023-02-11T07:03:21;39.22;;;21.65;;
59054;SDS011;44845;51.444;7.460;2023-02-11T07:05:46;36.92;;;21.25;;
59054;SDS011;44845;51.444;7.460;2023-02-11T07:08:12;42.03;;;22.55;;
59054;SDS011;44845;51.444;7.460;2023-02-11T07:10:37;43.85;;;21.40;;
59054;SDS011;44845;51.444;7.460;2023-02-11T07:13:03;38.60;;;22.23;;
59054;SDS011;44845;51.444;7.460;2023-02-11T07:15:29;36.88;;;21.33;;
59054;SDS011;44845;51.444;7.460;2023-02-11T07:17:54;41.92;;;22.55;;
59054;SDS011;44845;51.444;7.460;2023-02-11T07:20:19;37.03;;;22.42;;
59054;SDS011;44845;51.444;7.460;2023-02-11T07:22:45;39.15;;;21.67;;
59054;SDS011;44845;51.444;7.460;2023-02-11T07:25:10;41.97;;;21.38;;
59054;SDS011;44845;51.444;7.460;2023-02-11T07:27:36;38.53;;;21.73;;
59054;SDS011;44845;51.444;7.460;2023-02-11T07:30:01;38.80;;;22.75;;
59054;SDS011;44845;51.444;7.460;2023-02-11T07:32:29;41.42;;;22.52;;
59054;SDS011;44845;51.444;7.460;2023-02-11T07:34:55;44.97;;;22.90;;
59054;SDS011;44845;51.444;7.460;2023-02-11T07:37:20;38.30;;;22.42;;
59054;SDS011;44845;51.444;7.460;2023-02-11T07:39:45;42.85;;;23.83;;
59054;SDS011;44845;51.444;7.460;2023-02-11T07:42:11;46.05;;;23.40;;
59054;SDS011;44845;51.444;7.460;2023-02-11T07:44:36;45.50;;;23.58;;
59054;SDS011;44845;51.444;7.460;2023-02-11T07:47:01;47.30;;;24.08;;
59054;SDS011;44845;51.444;7.460;2023-02-11T07:49:27;41.53;;;23.63;;
59054;SDS011;44845;51.444;7.460;2023-02-11T07:51:53;48.10;;;22.42;;
59054;SDS011;44845;51.444;7.460;2023-02-11T07:54:18;47.75;;;24.60;;
59054;SDS011;44845;51.444;7.460;2023-02-11T07:56:44;45.35;;;23.55;;
59054;SDS011;44845;51.444;7.460;2023-02-11T07:59:09;44.63;;;24.75;;
59054;SDS011;44845;51.444;7.460;2023-02-11T08:01:35;48.10;;;23.70;;
59054;SDS011;44845;51.444;7.460;2023-02-11T08:04:01;46.85;;;24.08;;
59054;SDS011;44845;51.444;7.460;2023-02-11T08:06:28;51.63;;;24.75;;
59054;SDS011;44845;51.444;7.460;2023-02-11T08:08:57;53.22;;;26.10;;
59054;SDS011;44845;51.444;7.460;2023-02-11T08:11:31;50.73;;;25.37;;
59054;SDS011;44845;51.444;7.460;2023-02-11T08:13:56;51.97;;;26.10;;
59054;SDS011;44845;51.444;7.460;2023-02-11T08:16:24;45.38;;;23.65;;
59054;SDS011;44845;51.444;7.460;2023-02-11T08:18:51;52.08;;;25.10;;
59054;SDS011;44845;51.444;7.460;2023-02-11T08:21:18;50.13;;;25.25;;
59054;SDS011;44845;51.444;7.460;2023-02-11T08:23:44;50.30;;;25.08;;
59054;SDS011;44845;51.444;7.460;2023-02-11T08:26:12;49.28;;;24.45;;
59054;SDS011;44845;51.444;7.460;2023-02-11T08:28:41;51.53;;;25.90;;
59054;SDS011;44845;51.444;7.460;2023-02-11T08:31:08;50.55;;;24.63;;
59054;SDS011;44845;51.444;7.460;2023-02-11T08:33:35;52.75;;;25.27;;
59054;SDS011;44845;51.444;7.460;2023-02-11T08:36:06;54.55;;;26.15;;
59054;SDS011;44845;51.444;7.460;2023-02-11T08:38:33;48.97;;;26.40;;
59054;SDS011;44845;51.444;7.460;2023-02-11T08:40:59;54.80;;;26.63;;
59054;SDS011;44845;51.444;7.460;2023-02-11T08:43:24;53.45;;;26.40;;
59054;SDS011;44845;51.444;7.460;2023-02-11T08:45:50;58.92;;;27.20;;
59054;SDS011;44845;51.444;7.460;2023-02-11T08:48:15;58.72;;;26.33;;
59054;SDS011;44845;51.444;7.460;2023-02-11T08:50:41;60.55;;;27.92;;
59054;SDS011;44845;51.444;7.460;2023-02-11T08:53:06;52.38;;;26.65;;
59054;SDS011;44845;51.444;7.460;2023-02-11T08:55:32;56.72;;;27.77;;
59054;SDS011;44845;51.444;7.460;2023-02-11T08:57:57;56.17;;;26.92;;
59054;SDS011;44845;51.444;7.460;2023-02-11T09:00:22;58.35;;;29.15;;
59054;SDS011;44845;51.444;7.460;2023-02-11T09:02:48;61.83;;;27.65;;
59054;SDS011;44845;51.444;7.460;2023-02-11T09:05:13;50.67;;;26.38;;
59054;SDS011;44845;51.444;7.460;2023-02-11T09:07:39;59.92;;;27.25;;
59054;SDS011;44845;51.444;7.460;2023-02-11T09:10:04;59.08;;;27.52;;
59054;SDS011;44845;51.444;7.460;2023-02-11T09:12:30;59.15;;;27.88;;
59054;SDS011;44845;51.444;7.460;2023-02-11T09:14:55;62.67;;;28.42;;
59054;SDS011;44845;51.444;7.460;2023-02-11T09:17:21;59.42;;;29.08;;
59054;SDS011;44845;51.444;7.460;2023-02-11T09:19:46;63.47;;;28.23;;
59054;SDS011;44845;51.444;7.460;2023-02-11T09:22:12;56.90;;;28.55;;
59054;SDS011;44845;51.444;7.460;2023-02-11T09:24:37;57.00;;;27.92;;
59054;SDS011;44845;51.444;7.460;2023-02-11T09:27:02;59.35;;;28.25;;
59054;SDS011;44845;51.444;7.460;2023-02-11T09:29:28;52.30;;;27.35;;
59054;SDS011;44845;51.444;7.460;2023-02-11T09:31:55;59.55;;;28.33;;
59054;SDS011;44845;51.444;7.460;2023-02-11T09:34:20;58.97;;;27.90;;
59054;SDS011;44845;51.444;7.460;2023-02-11T09:36:46;61.70;;;28.75;;
59054;SDS011;44845;51.444;7.460;2023-02-11T09:39:12;67.13;;;28.73;;
59054;SDS011;44845;51.444;7.460;2023-02-11T09:41:46;56.15;;;28.90;;
59054;SDS011;44845;51.444;7.460;2023-02-11T09:44:25;61.95;;;28.00;;
59054;SDS011;44845;51.444;7.460;2023-02-11T09:46:57;60.80;;;29.13;;
59054;SDS011;44845;51.444;7.460;2023-02-11T09:52:21;57.70;;;29.17;;
59054;SDS011;44845;51.444;7.460;2023-02-11T09:54:57;64.13;;;28.35;;
59054;SDS011;44845;51.444;7.460;2023-02-11T09:57:33;64.47;;;28.67;;
59054;SDS011;44845;51.444;7.460;2023-02-11T10:00:01;61.78;;;29.33;;
59054;SDS011;44845;51.444;7.460;2023-02-11T10:02:44;62.90;;;29.17;;
59054;SDS011;44845;51.444;7.460;2023-02-11T10:08:07;67.32;;;29.88;;
59054;SDS011;44845;51.444;7.460;2023-02-11T10:11:11;62.60;;;29.37;;
59054;SDS011;44845;51.444;7.460;2023-02-11T10:16:55;61.92;;;28.63;;
59054;SDS011;44845;51.444;7.460;2023-02-11T10:22:09;60.83;;;28.40;;
59054;SDS011;44845;51.444;7.460;2023-02-11T10:24:35;54.17;;;26.25;;
59054;SDS011;44845;51.444;7.460;2023-02-11T10:27:10;61.80;;;29.65;;
59054;SDS011;44845;51.444;7.460;2023-02-11T10:29:43;58.88;;;28.17;;
59054;SDS011;44845;51.444;7.460;2023-02-11T10:32:27;59.28;;;29.00;;
59054;SDS011;44845;51.444;7.460;2023-02-11T10:34:59;59.60;;;28.42;;
59054;SDS011;44845;51.444;7.460;2023-02-11T10:37:34;61.03;;;27.05;;
59054;SDS011;44845;51.444;7.460;2023-02-11T10:39:59;54.50;;;27.70;;
59054;SDS011;44845;51.444;7.460;2023-02-11T10:42:24;55.40;;;27.17;;
59054;SDS011;44845;51.444;7.460;2023-02-11T10:45:01;61.47;;;28.67;;
59054;SDS011;44845;51.444;7.460;2023-02-11T10:47:31;65.15;;;29.08;;
59054;SDS011;44845;51.444;7.460;2023-02-11T10:50:06;64.20;;;29.63;;
59054;SDS011;44845;51.444;7.460;2023-02-11T10:52:44;59.10;;;27.48;;
59054;SDS011;44845;51.444;7.460;2023-02-11T10:55:20;60.42;;;28.48;;
59054;SDS011;44845;51.444;7.460;2023-02-11T10:57:53;60.03;;;28.30;;
59054;SDS011;44845;51.444;7.460;2023-02-11T11:00:23;60.65;;;27.77;;
59054;SDS011;44845;51.444;7.460;2023-02-11T11:02:55;60.75;;;27.33;;
59054;SDS011;44845;51.444;7.460;2023-02-11T11:05:30;58.00;;;29.52;;
59054;SDS011;44845;51.444;7.460;2023-02-11T11:07:59;54.95;;;27.42;;
59054;SDS011;44845;51.444;7.460;2023-02-11T11:10:30;59.35;;;27.67;;
59054;SDS011;44845;51.444;7.460;2023-02-11T11:13:01;61.83;;;27.38;;
59054;SDS011;44845;51.444;7.460;2023-02-11T11:15:27;58.67;;;27.63;;
59054;SDS011;44845;51.444;7.460;2023-02-11T11:18:09;69.40;;;29.42;;
59054;SDS011;44845;51.444;7.460;2023-02-11T11:20:57;63.60;;;28.75;;
59054;SDS011;44845;51.444;7.460;2023-02-11T11:23:24;53.15;;;27.27;;
59054;SDS011;44845;51.444;7.460;2023-02-11T11:28:32;63.40;;;28.70;;
59054;SDS011;44845;51.444;7.460;2023-02-11T11:31:03;60.95;;;29.13;;
59054;SDS011;44845;51.444;7.460;2023-02-11T11:33:30;62.65;;;29.35;;
59054;SDS011;44845;51.444;7.460;2023-02-11T11:38:26;65.07;;;30.30;;
59054;SDS011;44845;51.444;7.460;2023-02-11T11:46:28;73.63;;;31.48;;
59054;SDS011;44845;51.444;7.460;2023-02-11T11:48:58;67.70;;;30.92;;
59054;SDS011;44845;51.444;7.460;2023-02-11T11:51:30;68.15;;;31.33;;
59054;SDS011;44845;51.444;7.460;2023-02-11T11:54:05;64.88;;;32.35;;
59054;SDS011;44845;51.444;7.460;2023-02-11T11:56:36;65.97;;;31.30;;
59054;SDS011;44845;51.444;7.460;2023-02-11T11:59:09;72.35;;;32.25;;
59054;SDS011;44845;51.444;7.460;2023-02-11T12:04:28;68.05;;;31.30;;
59054;SDS011;44845;51.444;7.460;2023-02-11T12:12:26;70.27;;;30.93;;
59054;SDS011;44845;51.444;7.460;2023-02-11T12:18:08;66.97;;;30.80;;
59054;SDS011;44845;51.444;7.460;2023-02-11T12:23:46;66.70;;;31.63;;
59054;SDS011;44845;51.444;7.460;2023-02-11T12:26:30;67.82;;;32.20;;
59054;SDS011;44845;51.444;7.460;2023-02-11T12:32:07;71.47;;;31.92;;
59054;SDS011;44845;51.444;7.460;2023-02-11T12:48:17;71.75;;;34.90;;
59054;SDS011;44845;51.444;7.460;2023-02-11T12:56:39;73.60;;;31.95;;
59054;SDS011;44845;51.444;7.460;2023-02-11T13:01:54;75.50;;;34.55;;
59054;SDS011;44845;51.444;7.460;2023-02-11T13:04:25;72.03;;;33.95;;
59054;SDS011;44845;51.444;7.460;2023-02-11T13:06:58;73.28;;;33.47;;
59054;SDS011;44845;51.444;7.460;2023-02-11T13:09:31;76.20;;;33.78;;
59054;SDS011;44845;51.444;7.460;2023-02-11T13:12:02;74.45;;;35.60;;
59054;SDS011;44845;51.444;7.460;2023-02-11T13:14:51;78.20;;;35.65;;
59054;SDS011;44845;51.444;7.460;2023-02-11T13:17:23;75.18;;;36.42;;
59054;SDS011;44845;51.444;7.460;2023-02-11T13:19:57;73.88;;;35.17;;
59054;SDS011;44845;51.444;7.460;2023-02-11T13:22:30;83.03;;;36.72;;
59054;SDS011;44845;51.444;7.460;2023-02-11T13:25:18;77.95;;;35.08;;
59054;SDS011;44845;51.444;7.460;2023-02-11T13:27:56;77.55;;;35.80;;
59054;SDS011;44845;51.444;7.460;2023-02-11T13:30:34;89.32;;;38.03;;
59054;SDS011;44845;51.444;7.460;2023-02-11T13:33:05;76.60;;;36.00;;
59054;SDS011;44845;51.444;7.460;2023-02-11T13:35:44;78.88;;;36.25;;
59054;SDS011;44845;51.444;7.460;2023-02-11T13:38:20;81.10;;;38.25;;
59054;SDS011;44845;51.444;7.460;2023-02-11T13:43:45;80.15;;;37.40;;
59054;SDS011;44845;51.444;7.460;2023-02-11T13:46:47;82.18;;;36.55;;
59054;SDS011;44845;51.444;7.460;2023-02-11T13:49:39;85.07;;;36.85;;
59054;SDS011;44845;51.444;7.460;2023-02-11T13:52:14;84.30;;;38.00;;
59054;SDS011;44845;51.444;7.460;2023-02-11T13:54:52;77.65;;;35.53;;
59054;SDS011;44845;51.444;7.460;2023-02-11T13:59:45;84.97;;;38.20;;
59054;SDS011;44845;51.444;7.460;2023-02-11T14:05:00;80.22;;;35.08;;
59054;SDS011;44845;51.444;7.460;2023-02-11T14:10:58;85.93;;;38.20;;
59054;SDS011;44845;51.444;7.460;2023-02-11T14:13:35;75.35;;;36.17;;
59054;SDS011;44845;51.444;7.460;2023-02-11T14:16:21;77.78;;;35.55;;
59054;SDS011;44845;51.444;7.460;2023-02-11T14:21:14;76.25;;;37.85;;
59054;SDS011;44845;51.444;7.460;2023-02-11T14:28:48;80.18;;;35.05;;
59054;SDS011;44845;51.444;7.460;2023-02-11T14:31:21;74.68;;;36.75;;
59054;SDS011;44845;51.444;7.460;2023-02-11T14:36:37;84.07;;;37.30;;
59054;SDS011;44845;51.444;7.460;2023-02-11T14:39:27;72.60;;;35.83;;
59054;SDS011;44845;51.444;7.460;2023-02-11T14:41:53;79.03;;;35.92;;
59054;SDS011;44845;51.444;7.460;2023-02-11T14:44:24;75.38;;;36.28;;
59054;SDS011;44845;51.444;7.460;2023-02-11T14:46:51;83.93;;;38.03;;
59054;SDS011;44845;51.444;7.460;2023-02-11T14:49:26;78.80;;;35.30;;
59054;SDS011;44845;51.444;7.460;2023-02-11T14:51:55;81.82;;;38.58;;
59054;SDS011;44845;51.444;7.460;2023-02-11T14:54:31;78.40;;;37.22;;
59054;SDS011;44845;51.444;7.460;2023-02-11T14:57:08;85.65;;;37.58;;
59054;SDS011;44845;51.444;7.460;2023-02-11T14:59:37;80.88;;;38.97;;
59054;SDS011;44845;51.444;7.460;2023-02-11T15:02:14;72.28;;;37.80;;
59054;SDS011;44845;51.444;7.460;2023-02-11T15:04:44;86.22;;;38.78;;
59054;SDS011;44845;51.444;7.460;2023-02-11T15:07:10;78.68;;;38.42;;
59054;SDS011;44845;51.444;7.460;2023-02-11T15:09:41;77.25;;;37.15;;
59054;SDS011;44845;51.444;7.460;2023-02-11T15:12:15;72.47;;;36.95;;
59054;SDS011;44845;51.444;7.460;2023-02-11T15:14:47;72.72;;;36.92;;
59054;SDS011;44845;51.444;7.460;2023-02-11T15:17:15;79.57;;;37.03;;
59054;SDS011;44845;51.444;7.460;2023-02-11T15:19:45;77.53;;;36.03;;
59054;SDS011;44845;51.444;7.460;2023-02-11T15:22:20;77.00;;;37.47;;
59054;SDS011;44845;51.444;7.460;2023-02-11T15:25:02;68.30;;;34.60;;
59054;SDS011;44845;51.444;7.460;2023-02-11T15:27:38;69.45;;;34.28;;
59054;SDS011;44845;51.444;7.460;2023-02-11T15:32:45;67.65;;;33.63;;
59054;SDS011;44845;51.444;7.460;2023-02-11T15:35:11;69.93;;;33.80;;
59054;SDS011;44845;51.444;7.460;2023-02-11T15:37:37;65.75;;;35.67;;
59054;SDS011;44845;51.444;7.460;2023-02-11T15:40:10;72.15;;;35.17;;
59054;SDS011;44845;51.444;7.460;2023-02-11T15:42:43;59.83;;;32.38;;
59054;SDS011;44845;51.444;7.460;2023-02-11T15:45:21;73.97;;;34.47;;
59054;SDS011;44845;51.444;7.460;2023-02-11T15:48:06;60.40;;;32.47;;
59054;SDS011;44845;51.444;7.460;2023-02-11T15:50:52;62.35;;;33.88;;
59054;SDS011;44845;51.444;7.460;2023-02-11T15:55:48;66.57;;;35.03;;
59054;SDS011;44845;51.444;7.460;2023-02-11T15:58:15;64.72;;;33.03;;
59054;SDS011;44845;51.444;7.460;2023-02-11T16:00:46;61.63;;;33.50;;
59054;SDS011;44845;51.444;7.460;2023-02-11T16:03:18;62.92;;;33.97;;
59054;SDS011;44845;51.444;7.460;2023-02-11T16:05:49;61.17;;;33.53;;
59054;SDS011;44845;51.444;7.460;2023-02-11T16:11:01;61.08;;;31.45;;
59054;SDS011;44845;51.444;7.460;2023-02-11T16:13:32;63.53;;;31.63;;
59054;SDS011;44845;51.444;7.460;2023-02-11T16:19:12;57.63;;;29.95;;
59054;SDS011;44845;51.444;7.460;2023-02-11T16:21:44;52.15;;;29.52;;
59054;SDS011;44845;51.444;7.460;2023-02-11T16:24:16;54.42;;;29.73;;
59054;SDS011;44845;51.444;7.460;2023-02-11T16:26:52;56.25;;;28.90;;
59054;SDS011;44845;51.444;7.460;2023-02-11T16:29:24;55.78;;;30.08;;
59054;SDS011;44845;51.444;7.460;2023-02-11T16:31:52;49.60;;;28.00;;
59054;SDS011;44845;51.444;7.460;2023-02-11T16:34:28;55.25;;;27.05;;
59054;SDS011;44845;51.444;7.460;2023-02-11T16:36:53;51.60;;;27.85;;
59054;SDS011;44845;51.444;7.460;2023-02-11T16:39:19;51.35;;;28.15;;
59054;SDS011;44845;51.444;7.460;2023-02-11T16:41:48;50.30;;;27.75;;
59054;SDS011;44845;51.444;7.460;2023-02-11T16:44:15;53.58;;;28.35;;
59054;SDS011;44845;51.444;7.460;2023-02-11T16:46:41;52.38;;;29.02;;
59054;SDS011;44845;51.444;7.460;2023-02-11T16:49:09;53.63;;;28.88;;